sensor_id;sensor_type;location;lat;lon;timestamp;pressure;altitude;pressure_sealevel;temperature;humidity
19843;BME280;10082;51.038;6.992;2023-06-10T00:00:27;112171.53;;;-144.33;85.08
19843;BME280;10082;51.038;6.992;2023-06-10T00:02:57;112171.53;;;-144.33;84.99
19843;BME280;10082;51.038;6.992;2023-06-10T00:05:24;112171.53;;;-144.33;85.19
19843;BME280;10082;51.038;6.992;2023-06-10T00:07:55;112171.53;;;-144.33;85.68
19843;BME280;10082;51.038;6.992;2023-06-10T00:10:23;112171.53;;;-144.33;86.09
19843;BME280;10082;51.038;6.992;2023-06-10T00:12:51;112171.53;;;-144.33;86.64
19843;BME280;10082;51.038;6.992;2023-06-10T00:15:18;112171.53;;;-144.33;86.37
19843;BME280;10082;51.038;6.992;2023-06-10T00:17:45;112171.53;;;-144.33;86.37
19843;BME280;10082;51.038;6.992;2023-06-10T00:20:14;112171.53;;;-144.33;86.12
19843;BME280;10082;51.038;6.992;2023-06-10T00:22:42;112171.53;;;-144.33;87.08
19843;BME280;10082;51.038;6.992;2023-06-10T00:25:11;112171.53;;;-144.33;87.06
19843;BME280;10082;51.038;6.992;2023-06-10T00:27:39;112171.53;;;-144.33;87.76
19843;BME280;10082;51.038;6.992;2023-06-10T00:30:07;112171.53;;;-144.33;88.59
19843;BME280;10082;51.038;6.992;2023-06-10T00:32:35;112171.53;;;-144.33;90.47
19843;BME280;10082;51.038;6.992;2023-06-10T00:35:10;112171.53;;;-144.33;91.50
19843;BME280;10082;51.038;6.992;2023-06-10T00:37:39;112171.53;;;-144.33;92.88
19843;BME280;10082;51.038;6.992;2023-06-10T00:40:07;112171.53;;;-144.33;94.13
19843;BME280;10082;51.038;6.992;2023-06-10T00:42:35;112171.53;;;-144.33;95.13
19843;BME280;10082;51.038;6.992;2023-06-10T00:45:03;112171.53;;;-144.33;96.40
19843;BME280;10082;51.038;6.992;2023-06-10T00:47:31;112171.53;;;-144.33;98.32
19843;BME280;10082;51.038;6.992;2023-06-10T00:49:58;112171.53;;;-144.33;99.43
19843;BME280;10082;51.038;6.992;2023-06-10T00:52:28;112171.53;;;-144.33;100.00
19843;BME280;10082;51.038;6.992;2023-06-10T00:54:58;112171.53;;;-144.33;100.00
19843;BME280;10082;51.038;6.992;2023-06-10T00:57:26;112171.53;;;-144.33;100.00
19843;BME280;10082;51.038;6.992;2023-06-10T00:59:56;112171.53;;;-144.33;100.00
19843;BME280;10082;51.038;6.992;2023-06-10T01:02:26;112171.53;;;-144.33;100.00
19843;BME280;10082;51.038;6.992;2023-06-10T01:04:54;112171.53;;;-144.33;100.00
19843;BME280;10082;51.038;6.992;2023-06-10T01:07:25;112171.53;;;-144.33;100.00
19843;BME280;10082;51.038;6.992;2023-06-10T01:09:59;112171.53;;;-144.33;100.00
19843;BME280;10082;51.038;6.992;2023-06-10T01:12:34;112171.53;;;-144.33;100.00
19843;BME280;10082;51.038;6.992;2023-06-10T01:15:06;112171.53;;;-144.33;100.00
19843;BME280;10082;51.038;6.992;2023-06-10T01:17:37;112171.53;;;-144.33;100.00
19843;BME280;10082;51.038;6.992;2023-06-10T01:20:18;112171.53;;;-144.33;100.00
19843;BME280;10082;51.038;6.992;2023-06-10T01:22:47;112171.53;;;-144.33;100.00
19843;BME280;10082;51.038;6.992;2023-06-10T01:25:14;112171.53;;;-144.33;100.00
19843;BME280;10082;51.038;6.992;2023-06-10T01:27:43;112171.53;;;-144.33;100.00
19843;BME280;10082;51.038;6.992;2023-06-10T01:30:14;112171.53;;;-144.33;100.00
19843;BME280;10082;51.038;6.992;2023-06-10T01:32:45;112171.53;;;-144.33;100.00
19843;BME280;10082;51.038;6.992;2023-06-10T01:35:15;112171.53;;;-144.33;100.00
19843;BME280;10082;51.038;6.992;2023-06-10T01:37:49;112171.53;;;-144.33;100.00
19843;BME280;10082;51.038;6.992;2023-06-10T01:40:18;112171.53;;;-144.33;100.00
19843;BME280;10082;51.038;6.992;2023-06-10T01:42:45;112171.53;;;-144.33;100.00
19843;BME280;10082;51.038;6.992;2023-06-10T01:45:12;112171.53;;;-144.33;100.00
19843;BME280;10082;51.038;6.992;2023-06-10T01:47:42;112171.53;;;-144.33;100.00
19843;BME280;10082;51.038;6.992;2023-06-10T01:50:10;112171.53;;;-144.33;100.00
19843;BME280;10082;51.038;6.992;2023-06-10T01:52:37;112171.53;;;-144.33;100.00
19843;BME280;10082;51.038;6.992;2023-06-10T01:55:06;112171.53;;;-144.33;100.00
19843;BME280;10082;51.038;6.992;2023-06-10T01:57:33;112171.53;;;-144.33;100.00
19843;BME280;10082;51.038;6.992;2023-06-10T02:00:01;112171.53;;;-144.33;100.00
19843;BME280;10082;51.038;6.992;2023-06-10T02:02:28;112171.53;;;-144.33;100.00
19843;BME280;10082;51.038;6.992;2023-06-10T02:04:56;112171.53;;;-144.33;100.00
19843;BME280;10082;51.038;6.992;2023-06-10T02:07:23;112171.53;;;-144.33;100.00
19843;BME280;10082;51.038;6.992;2023-06-10T02:09:50;112171.53;;;-144.33;100.00
19843;BME280;10082;51.038;6.992;2023-06-10T02:12:19;112171.53;;;-144.33;100.00
19843;BME280;10082;51.038;6.992;2023-06-10T02:14:47;112171.53;;;-144.33;100.00
19843;BME280;10082;51.038;6.992;2023-06-10T02:17:14;112171.53;;;-144.33;100.00
19843;BME280;10082;51.038;6.992;2023-06-10T02:19:42;112171.53;;;-144.33;100.00
19843;BME280;10082;51.038;6.992;2023-06-10T02:22:09;112171.53;;;-144.33;100.00
19843;BME280;10082;51.038;6.992;2023-06-10T02:24:36;112171.53;;;-144.33;100.00
19843;BME280;10082;51.038;6.992;2023-06-10T02:27:05;112171.53;;;-144.33;100.00
19843;BME280;10082;51.038;6.992;2023-06-10T02:29:35;112171.53;;;-144.33;100.00
19843;BME280;10082;51.038;6.992;2023-06-10T02:32:02;110537.31;;;-144.33;100.00
19843;BME280;10082;51.038;6.992;2023-06-10T02:34:29;108962.09;;;-144.33;100.00
19843;BME280;10082;51.038;6.992;2023-06-10T02:36:59;106629.53;;;-144.33;100.00
19843;BME280;10082;51.038;6.992;2023-06-10T02:39:27;105552.19;;;-144.33;100.00
19843;BME280;10082;51.038;6.992;2023-06-10T02:41:55;104163.72;;;-144.33;100.00
19843;BME280;10082;51.038;6.992;2023-06-10T02:44:24;102743.59;;;-144.33;100.00
19843;BME280;10082;51.038;6.992;2023-06-10T02:46:53;100233.94;;;-144.33;100.00
19843;BME280;10082;51.038;6.992;2023-06-10T02:49:21;99098.09;;;-144.33;100.00
19843;BME280;10082;51.038;6.992;2023-06-10T02:51:48;98722.91;;;-144.33;100.00
19843;BME280;10082;51.038;6.992;2023-06-10T02:54:18;99403.09;;;-144.33;100.00
19843;BME280;10082;51.038;6.992;2023-06-10T02:56:46;98626.59;;;-144.33;100.00
19843;BME280;10082;51.038;6.992;2023-06-10T02:59:20;98466.09;;;-144.33;100.00
19843;BME280;10082;51.038;6.992;2023-06-10T03:01:47;97822.16;;;-144.33;100.00
19843;BME280;10082;51.038;6.992;2023-06-10T03:04:16;97685.75;;;-144.33;100.00
19843;BME280;10082;51.038;6.992;2023-06-10T03:06:52;93968.66;;;-144.33;100.00
19843;BME280;10082;51.038;6.992;2023-06-10T03:09:26;92169.50;;;-144.33;100.00
19843;BME280;10082;51.038;6.992;2023-06-10T03:11:56;90459.22;;;-144.33;100.00
19843;BME280;10082;51.038;6.992;2023-06-10T03:14:25;89077.91;;;-144.33;100.00
19843;BME280;10082;51.038;6.992;2023-06-10T03:16:54;85814.72;;;-144.33;100.00
19843;BME280;10082;51.038;6.992;2023-06-10T03:19:25;83077.72;;;-144.33;100.00
19843;BME280;10082;51.038;6.992;2023-06-10T03:22:08;78575.47;;;-144.33;100.00
19843;BME280;10082;51.038;6.992;2023-06-10T03:24:43;76204.53;;;-144.33;100.00
19843;BME280;10082;51.038;6.992;2023-06-10T03:27:13;72640.78;;;-144.33;100.00
19843;BME280;10082;51.038;6.992;2023-06-10T03:29:43;70131.94;;;-144.33;100.00
19843;BME280;10082;51.038;6.992;2023-06-10T03:32:11;67630.59;;;-144.33;100.00
19843;BME280;10082;51.038;6.992;2023-06-10T03:34:42;64798.59;;;-144.33;100.00
19843;BME280;10082;51.038;6.992;2023-06-10T03:37:11;61881.13;;;-144.33;100.00
19843;BME280;10082;51.038;6.992;2023-06-10T03:39:38;59212.13;;;-144.33;100.00
19843;BME280;10082;51.038;6.992;2023-06-10T03:42:07;56759.34;;;-144.33;100.00
19843;BME280;10082;51.038;6.992;2023-06-10T03:44:35;54198.97;;;-144.33;100.00
19843;BME280;10082;51.038;6.992;2023-06-10T03:47:05;52264.88;;;-144.33;100.00
19843;BME280;10082;51.038;6.992;2023-06-10T03:49:32;50456.63;;;-144.33;100.00
19843;BME280;10082;51.038;6.992;2023-06-10T03:52:04;47252.56;;;-144.33;100.00
19843;BME280;10082;51.038;6.992;2023-06-10T03:54:31;45224.88;;;-144.33;100.00
19843;BME280;10082;51.038;6.992;2023-06-10T03:57:00;42691.72;;;-144.33;100.00
19843;BME280;10082;51.038;6.992;2023-06-10T03:59:27;40413.28;;;-144.33;100.00
19843;BME280;10082;51.038;6.992;2023-06-10T04:01:55;39148.06;;;-144.33;100.00
19843;BME280;10082;51.038;6.992;2023-06-10T04:04:23;38389.13;;;-144.33;100.00
19843;BME280;10082;51.038;6.992;2023-06-10T04:06:53;37377.41;;;-144.33;100.00
19843;BME280;10082;51.038;6.992;2023-06-10T04:09:24;35607.56;;;-144.33;100.00
19843;BME280;10082;51.038;6.992;2023-06-10T04:11:51;34596.59;;;-144.33;100.00
19843;BME280;10082;51.038;6.992;2023-06-10T04:14:18;32828.00;;;-144.33;100.00
19843;BME280;10082;51.038;6.992;2023-06-10T04:16:46;31565.22;;;-144.33;100.00
19843;BME280;10082;51.038;6.992;2023-06-10T04:19:14;30302.84;;;-144.33;100.00
19843;BME280;10082;51.038;6.992;2023-06-10T04:21:43;30302.84;;;-144.33;100.00
19843;BME280;10082;51.038;6.992;2023-06-10T04:24:10;30302.84;;;-144.33;100.00
19843;BME280;10082;51.038;6.992;2023-06-10T04:26:39;29798.00;;;-144.33;100.00
19843;BME280;10082;51.038;6.992;2023-06-10T04:29:08;29798.00;;;-144.33;100.00
19843;BME280;10082;51.038;6.992;2023-06-10T04:31:35;28536.19;;;-144.33;100.00
19843;BME280;10082;51.038;6.992;2023-06-10T04:34:03;30302.84;;;-144.33;100.00
19843;BME280;10082;51.038;6.992;2023-06-10T04:36:31;31565.22;;;-144.33;100.00
19843;BME280;10082;51.038;6.992;2023-06-10T04:38:59;32575.41;;;-144.33;100.00
19843;BME280;10082;51.038;6.992;2023-06-10T04:41:29;33838.53;;;-144.33;100.00
19843;BME280;10082;51.038;6.992;2023-06-10T04:43:58;33080.63;;;-144.33;100.00
19843;BME280;10082;51.038;6.992;2023-06-10T04:46:25;33585.88;;;-144.33;100.00
19843;BME280;10082;51.038;6.992;2023-06-10T04:48:56;34343.88;;;-144.33;100.00
19843;BME280;10082;51.038;6.992;2023-06-10T04:54:10;39907.16;;;-144.33;100.00
19843;BME280;10082;51.038;6.992;2023-06-10T04:56:37;41678.94;;;-144.33;100.00
19843;BME280;10082;51.038;6.992;2023-06-10T04:59:06;44464.75;;;-144.33;100.00
19843;BME280;10082;51.038;6.992;2023-06-10T05:01:35;46999.06;;;-144.33;100.00
19843;BME280;10082;51.038;6.992;2023-06-10T05:04:03;51057.31;;;-144.33;100.00
19843;BME280;10082;51.038;6.992;2023-06-10T05:06:31;55627.81;;;-144.33;100.00
19843;BME280;10082;51.038;6.992;2023-06-10T05:08:58;66822.38;;;-144.33;100.00
19843;BME280;10082;51.038;6.992;2023-06-10T05:11:25;81371.31;;;-144.33;100.00
19843;BME280;10082;51.038;6.992;2023-06-10T05:13:52;105514.00;;;-144.33;100.00
19843;BME280;10082;51.038;6.992;2023-06-10T05:16:21;112171.53;;;-144.33;100.00
19843;BME280;10082;51.038;6.992;2023-06-10T05:18:49;112171.53;;;-144.33;100.00
19843;BME280;10082;51.038;6.992;2023-06-10T05:21:17;112171.53;;;-144.33;100.00
19843;BME280;10082;51.038;6.992;2023-06-10T05:23:44;112171.53;;;-144.33;100.00
19843;BME280;10082;51.038;6.992;2023-06-10T05:26:11;112171.53;;;-144.33;100.00
19843;BME280;10082;51.038;6.992;2023-06-10T05:28:38;112171.53;;;-144.33;100.00
19843;BME280;10082;51.038;6.992;2023-06-10T05:31:07;112171.53;;;-144.33;99.88
19843;BME280;10082;51.038;6.992;2023-06-10T05:33:39;112171.53;;;-144.33;92.70
19843;BME280;10082;51.038;6.992;2023-06-10T05:36:06;112171.53;;;-144.33;88.09
19843;BME280;10082;51.038;6.992;2023-06-10T05:38:33;112171.53;;;-144.33;87.80
19843;BME280;10082;51.038;6.992;2023-06-10T05:41:00;112171.53;;;-144.33;90.11
19843;BME280;10082;51.038;6.992;2023-06-10T05:43:27;112171.53;;;-144.33;90.64
19843;BME280;10082;51.038;6.992;2023-06-10T05:45:55;112171.53;;;-144.33;90.24
19843;BME280;10082;51.038;6.992;2023-06-10T05:48:22;112171.53;;;-144.33;87.64
19843;BME280;10082;51.038;6.992;2023-06-10T05:50:51;112171.53;;;-144.33;83.95
19843;BME280;10082;51.038;6.992;2023-06-10T05:53:19;112171.53;;;-144.33;79.35
19843;BME280;10082;51.038;6.992;2023-06-10T05:55:46;112171.53;;;-144.33;74.86
19843;BME280;10082;51.038;6.992;2023-06-10T05:58:13;112171.53;;;-144.33;73.95
19843;BME280;10082;51.038;6.992;2023-06-10T06:00:41;112171.53;;;-144.33;71.86
19843;BME280;10082;51.038;6.992;2023-06-10T06:03:09;112171.53;;;-144.33;68.65
19843;BME280;10082;51.038;6.992;2023-06-10T06:05:36;112171.53;;;-144.33;66.17
19843;BME280;10082;51.038;6.992;2023-06-10T06:08:05;112171.53;;;-144.33;64.94
19843;BME280;10082;51.038;6.992;2023-06-10T06:10:33;112171.53;;;-144.33;63.79
19843;BME280;10082;51.038;6.992;2023-06-10T06:13:00;112171.53;;;-144.33;62.92
19843;BME280;10082;51.038;6.992;2023-06-10T06:15:27;112171.53;;;-144.33;61.10
19843;BME280;10082;51.038;6.992;2023-06-10T06:17:56;112171.53;;;-144.33;58.63
19843;BME280;10082;51.038;6.992;2023-06-10T06:20:23;112171.53;;;-144.33;57.98
19843;BME280;10082;51.038;6.992;2023-06-10T06:22:50;112171.53;;;-144.33;60.08
19843;BME280;10082;51.038;6.992;2023-06-10T06:25:19;112171.53;;;-144.33;60.41
19843;BME280;10082;51.038;6.992;2023-06-10T06:27:46;112171.53;;;-144.33;60.11
19843;BME280;10082;51.038;6.992;2023-06-10T06:30:13;112171.53;;;-144.33;59.54
19843;BME280;10082;51.038;6.992;2023-06-10T06:32:40;112171.53;;;-144.33;58.00
19843;BME280;10082;51.038;6.992;2023-06-10T06:35:08;112171.53;;;-144.33;59.12
19843;BME280;10082;51.038;6.992;2023-06-10T06:37:36;112171.53;;;-144.33;57.01
19843;BME280;10082;51.038;6.992;2023-06-10T06:40:16;112171.53;;;-144.33;57.61
19843;BME280;10082;51.038;6.992;2023-06-10T06:42:45;112171.53;;;-144.33;56.24
19843;BME280;10082;51.038;6.992;2023-06-10T06:45:41;112171.53;;;-144.33;54.67
19843;BME280;10082;51.038;6.992;2023-06-10T06:48:08;112171.53;;;-144.33;49.58
19843;BME280;10082;51.038;6.992;2023-06-10T06:50:35;112171.53;;;-144.33;44.77
19843;BME280;10082;51.038;6.992;2023-06-10T06:53:03;112171.53;;;-144.33;46.01
19843;BME280;10082;51.038;6.992;2023-06-10T06:55:30;112171.53;;;-144.33;46.77
19843;BME280;10082;51.038;6.992;2023-06-10T06:57:59;112171.53;;;-144.33;49.00
19843;BME280;10082;51.038;6.992;2023-06-10T07:00:38;112171.53;;;-144.33;46.50
19843;BME280;10082;51.038;6.992;2023-06-10T07:03:06;112171.53;;;-144.33;45.25
19843;BME280;10082;51.038;6.992;2023-06-10T07:05:34;112171.53;;;-144.33;44.94
19843;BME280;10082;51.038;6.992;2023-06-10T07:08:01;112171.53;;;-144.33;48.33
19843;BME280;10082;51.038;6.992;2023-06-10T07:10:28;112171.53;;;-144.33;48.03
19843;BME280;10082;51.038;6.992;2023-06-10T07:12:57;112171.53;;;-144.33;45.92
19843;BME280;10082;51.038;6.992;2023-06-10T07:15:25;112171.53;;;-144.33;45.72
19843;BME280;10082;51.038;6.992;2023-06-10T07:17:53;112171.53;;;-144.33;43.67
19843;BME280;10082;51.038;6.992;2023-06-10T07:20:20;112171.53;;;-144.33;43.56
19843;BME280;10082;51.038;6.992;2023-06-10T07:22:47;112171.53;;;-144.33;43.02
19843;BME280;10082;51.038;6.992;2023-06-10T07:25:14;112171.53;;;-144.33;43.58
19843;BME280;10082;51.038;6.992;2023-06-10T07:27:42;112171.53;;;-144.33;42.31
19843;BME280;10082;51.038;6.992;2023-06-10T07:30:12;112171.53;;;-144.33;44.90
19843;BME280;10082;51.038;6.992;2023-06-10T07:32:39;112171.53;;;-144.33;43.14
19843;BME280;10082;51.038;6.992;2023-06-10T07:35:09;112171.53;;;-144.33;42.65
19843;BME280;10082;51.038;6.992;2023-06-10T07:37:36;112171.53;;;-144.33;43.08
19843;BME280;10082;51.038;6.992;2023-06-10T07:40:04;112171.53;;;-144.33;42.27
19843;BME280;10082;51.038;6.992;2023-06-10T07:42:32;112171.53;;;-144.33;40.89
19843;BME280;10082;51.038;6.992;2023-06-10T07:44:59;112171.53;;;-144.33;40.00
19843;BME280;10082;51.038;6.992;2023-06-10T07:47:28;112171.53;;;-144.33;38.08
19843;BME280;10082;51.038;6.992;2023-06-10T07:49:56;112171.53;;;-144.33;39.82
19843;BME280;10082;51.038;6.992;2023-06-10T07:52:23;112171.53;;;-144.33;37.89
19843;BME280;10082;51.038;6.992;2023-06-10T07:54:49;112171.53;;;-144.33;38.92
19843;BME280;10082;51.038;6.992;2023-06-10T07:57:16;112171.53;;;-144.33;39.40
19843;BME280;10082;51.038;6.992;2023-06-10T07:59:43;112171.53;;;-144.33;39.51
19843;BME280;10082;51.038;6.992;2023-06-10T08:02:10;112171.53;;;-144.33;38.51
19843;BME280;10082;51.038;6.992;2023-06-10T08:04:39;112171.53;;;-144.33;37.89
19843;BME280;10082;51.038;6.992;2023-06-10T08:07:06;112171.53;;;-144.33;37.24
19843;BME280;10082;51.038;6.992;2023-06-10T08:09:33;112171.53;;;-144.33;37.93
19843;BME280;10082;51.038;6.992;2023-06-10T08:12:02;112171.53;;;-144.33;38.82
19843;BME280;10082;51.038;6.992;2023-06-10T08:14:29;112171.53;;;-144.33;37.26
19843;BME280;10082;51.038;6.992;2023-06-10T08:16:56;112171.53;;;-144.33;35.79
19843;BME280;10082;51.038;6.992;2023-06-10T08:19:23;112171.53;;;-144.33;35.28
19843;BME280;10082;51.038;6.992;2023-06-10T08:21:52;112171.53;;;-144.33;35.25
19843;BME280;10082;51.038;6.992;2023-06-10T08:24:19;112171.53;;;-144.33;36.04
19843;BME280;10082;51.038;6.992;2023-06-10T08:26:46;112171.53;;;-144.33;36.15
19843;BME280;10082;51.038;6.992;2023-06-10T08:29:13;112171.53;;;-144.33;36.35
19843;BME280;10082;51.038;6.992;2023-06-10T08:31:41;112171.53;;;-144.33;33.97
19843;BME280;10082;51.038;6.992;2023-06-10T08:34:09;112171.53;;;-144.33;33.05
19843;BME280;10082;51.038;6.992;2023-06-10T08:36:37;112171.53;;;-144.33;32.64
19843;BME280;10082;51.038;6.992;2023-06-10T08:39:06;112171.53;;;-144.33;33.69
19843;BME280;10082;51.038;6.992;2023-06-10T08:41:35;112171.53;;;-144.33;33.90
19843;BME280;10082;51.038;6.992;2023-06-10T08:44:08;112171.53;;;-144.33;33.23
19843;BME280;10082;51.038;6.992;2023-06-10T08:46:37;112171.53;;;-144.33;32.60
19843;BME280;10082;51.038;6.992;2023-06-10T08:49:06;112171.53;;;-144.33;32.73
19843;BME280;10082;51.038;6.992;2023-06-10T08:51:35;112171.53;;;-144.33;32.12
19843;BME280;10082;51.038;6.992;2023-06-10T08:54:08;112171.53;;;-144.33;32.95
19843;BME280;10082;51.038;6.992;2023-06-10T08:56:39;112171.53;;;-144.33;32.11
19843;BME280;10082;51.038;6.992;2023-06-10T08:59:06;112171.53;;;-144.33;31.51
19843;BME280;10082;51.038;6.992;2023-06-10T09:01:34;112171.53;;;-144.33;30.52
19843;BME280;10082;51.038;6.992;2023-06-10T09:04:01;112171.53;;;-144.33;31.14
19843;BME280;10082;51.038;6.992;2023-06-10T09:06:30;112171.53;;;-144.33;31.89
19843;BME280;10082;51.038;6.992;2023-06-10T09:08:59;112171.53;;;-144.33;32.84
19843;BME280;10082;51.038;6.992;2023-06-10T09:11:27;112171.53;;;-144.33;32.50
19843;BME280;10082;51.038;6.992;2023-06-10T09:13:54;112171.53;;;-144.33;32.50
19843;BME280;10082;51.038;6.992;2023-06-10T09:16:21;112171.53;;;-144.33;33.28
19843;BME280;10082;51.038;6.992;2023-06-10T09:18:49;112171.53;;;-144.33;32.67
19843;BME280;10082;51.038;6.992;2023-06-10T09:21:21;112171.53;;;-144.33;32.31
19843;BME280;10082;51.038;6.992;2023-06-10T09:23:48;112171.53;;;-144.33;34.18
19843;BME280;10082;51.038;6.992;2023-06-10T09:26:15;112171.53;;;-144.33;34.62
19843;BME280;10082;51.038;6.992;2023-06-10T09:28:44;112171.53;;;-144.33;34.75
19843;BME280;10082;51.038;6.992;2023-06-10T09:31:14;112171.53;;;-144.33;31.59
19843;BME280;10082;51.038;6.992;2023-06-10T09:33:44;112171.53;;;-144.33;30.59
19843;BME280;10082;51.038;6.992;2023-06-10T09:36:21;112171.53;;;-144.33;31.61
19843;BME280;10082;51.038;6.992;2023-06-10T09:38:49;112171.53;;;-144.33;31.51
19843;BME280;10082;51.038;6.992;2023-06-10T09:41:17;112171.53;;;-144.33;32.31
19843;BME280;10082;51.038;6.992;2023-06-10T09:43:46;112171.53;;;-144.33;31.58
19843;BME280;10082;51.038;6.992;2023-06-10T09:46:15;112171.53;;;-144.33;30.34
19843;BME280;10082;51.038;6.992;2023-06-10T09:48:43;112171.53;;;-144.33;29.34
19843;BME280;10082;51.038;6.992;2023-06-10T09:51:11;112171.53;;;-144.33;29.34
19843;BME280;10082;51.038;6.992;2023-06-10T09:53:39;112171.53;;;-144.33;29.74
19843;BME280;10082;51.038;6.992;2023-06-10T09:56:06;112171.53;;;-144.33;31.90
19843;BME280;10082;51.038;6.992;2023-06-10T09:58:35;112171.53;;;-144.33;30.15
19843;BME280;10082;51.038;6.992;2023-06-10T10:01:06;112171.53;;;-144.33;29.37
19843;BME280;10082;51.038;6.992;2023-06-10T10:03:33;112171.53;;;-144.33;29.27
19843;BME280;10082;51.038;6.992;2023-06-10T10:06:00;112171.53;;;-144.33;29.96
19843;BME280;10082;51.038;6.992;2023-06-10T10:08:27;112171.53;;;-144.33;31.39
19843;BME280;10082;51.038;6.992;2023-06-10T10:10:56;112171.53;;;-144.33;31.40
19843;BME280;10082;51.038;6.992;2023-06-10T10:13:25;112171.53;;;-144.33;29.32
19843;BME280;10082;51.038;6.992;2023-06-10T10:15:55;112171.53;;;-144.33;31.34
19843;BME280;10082;51.038;6.992;2023-06-10T10:21:52;112171.53;;;-144.33;28.18
19843;BME280;10082;51.038;6.992;2023-06-10T10:24:21;112171.53;;;-144.33;27.99
19843;BME280;10082;51.038;6.992;2023-06-10T10:26:50;112171.53;;;-144.33;28.71
19843;BME280;10082;51.038;6.992;2023-06-10T10:29:24;112171.53;;;-144.33;31.35
19843;BME280;10082;51.038;6.992;2023-06-10T10:31:51;112171.53;;;-144.33;30.76
19843;BME280;10082;51.038;6.992;2023-06-10T10:34:23;112171.53;;;-144.33;30.62
19843;BME280;10082;51.038;6.992;2023-06-10T10:36:54;112171.53;;;-144.33;30.62
19843;BME280;10082;51.038;6.992;2023-06-10T10:39:21;112171.53;;;-144.33;31.56
19843;BME280;10082;51.038;6.992;2023-06-10T10:41:49;112171.53;;;-144.33;31.18
19843;BME280;10082;51.038;6.992;2023-06-10T10:44:17;112171.53;;;-144.33;31.64
19843;BME280;10082;51.038;6.992;2023-06-10T10:46:46;112171.53;;;-144.33;29.46
19843;BME280;10082;51.038;6.992;2023-06-10T10:49:15;112171.53;;;-144.33;28.20
19843;BME280;10082;51.038;6.992;2023-06-10T10:51:58;112171.53;;;-144.33;27.74
19843;BME280;10082;51.038;6.992;2023-06-10T10:54:29;112171.53;;;-144.33;27.34
19843;BME280;10082;51.038;6.992;2023-06-10T10:57:13;112171.53;;;-144.33;26.82
19843;BME280;10082;51.038;6.992;2023-06-10T11:00:00;112171.53;;;-144.33;26.59
19843;BME280;10082;51.038;6.992;2023-06-10T11:02:35;112171.53;;;-144.33;26.70
19843;BME280;10082;51.038;6.992;2023-06-10T11:05:05;112171.53;;;-144.33;27.21
19843;BME280;10082;51.038;6.992;2023-06-10T11:07:34;112171.53;;;-144.33;28.25
19843;BME280;10082;51.038;6.992;2023-06-10T11:10:05;112171.53;;;-144.33;28.59
19843;BME280;10082;51.038;6.992;2023-06-10T11:12:49;112171.53;;;-144.33;27.83
19843;BME280;10082;51.038;6.992;2023-06-10T11:15:19;112171.53;;;-144.33;27.76
19843;BME280;10082;51.038;6.992;2023-06-10T11:18:12;112171.53;;;-144.33;26.90
19843;BME280;10082;51.038;6.992;2023-06-10T11:21:00;112171.53;;;-144.33;26.94
19843;BME280;10082;51.038;6.992;2023-06-10T11:23:50;112171.53;;;-144.33;27.12
19843;BME280;10082;51.038;6.992;2023-06-10T11:26:29;112171.53;;;-144.33;28.44
19843;BME280;10082;51.038;6.992;2023-06-10T11:29:07;112171.53;;;-144.33;29.50
19843;BME280;10082;51.038;6.992;2023-06-10T11:31:42;112171.53;;;-144.33;29.89
19843;BME280;10082;51.038;6.992;2023-06-10T11:34:10;112171.53;;;-144.33;30.38
19843;BME280;10082;51.038;6.992;2023-06-10T11:36:39;112171.53;;;-144.33;31.01
19843;BME280;10082;51.038;6.992;2023-06-10T11:39:12;112171.53;;;-144.33;31.10
19843;BME280;10082;51.038;6.992;2023-06-10T11:41:39;112171.53;;;-144.33;31.47
19843;BME280;10082;51.038;6.992;2023-06-10T11:44:11;112171.53;;;-144.33;31.65
19843;BME280;10082;51.038;6.992;2023-06-10T11:46:39;112171.53;;;-144.33;30.96
19843;BME280;10082;51.038;6.992;2023-06-10T11:49:08;112171.53;;;-144.33;31.46
19843;BME280;10082;51.038;6.992;2023-06-10T11:51:36;112171.53;;;-144.33;31.35
19843;BME280;10082;51.038;6.992;2023-06-10T11:54:04;112171.53;;;-144.33;31.98
19843;BME280;10082;51.038;6.992;2023-06-10T11:56:34;112171.53;;;-144.33;31.65
19843;BME280;10082;51.038;6.992;2023-06-10T11:59:01;112171.53;;;-144.33;31.28
19843;BME280;10082;51.038;6.992;2023-06-10T12:01:30;112171.53;;;-144.33;31.34
19843;BME280;10082;51.038;6.992;2023-06-10T12:04:00;112171.53;;;-144.33;31.11
19843;BME280;10082;51.038;6.992;2023-06-10T12:06:37;112171.53;;;-144.33;30.83
19843;BME280;10082;51.038;6.992;2023-06-10T12:09:05;112171.53;;;-144.33;29.07
19843;BME280;10082;51.038;6.992;2023-06-10T12:11:34;112171.53;;;-144.33;28.19
19843;BME280;10082;51.038;6.992;2023-06-10T12:14:01;112171.53;;;-144.33;28.05
19843;BME280;10082;51.038;6.992;2023-06-10T12:16:28;112171.53;;;-144.33;26.41
19843;BME280;10082;51.038;6.992;2023-06-10T12:19:01;112171.53;;;-144.33;27.55
19843;BME280;10082;51.038;6.992;2023-06-10T12:21:28;112171.53;;;-144.33;25.81
19843;BME280;10082;51.038;6.992;2023-06-10T12:24:07;112171.53;;;-144.33;26.27
19843;BME280;10082;51.038;6.992;2023-06-10T12:26:41;112171.53;;;-144.33;24.99
19843;BME280;10082;51.038;6.992;2023-06-10T12:29:20;112171.53;;;-144.33;24.39
19843;BME280;10082;51.038;6.992;2023-06-10T12:31:56;112171.53;;;-144.33;24.83
19843;BME280;10082;51.038;6.992;2023-06-10T12:34:34;112171.53;;;-144.33;25.70
19843;BME280;10082;51.038;6.992;2023-06-10T12:37:04;112171.53;;;-144.33;26.41
19843;BME280;10082;51.038;6.992;2023-06-10T12:39:32;112171.53;;;-144.33;27.19
19843;BME280;10082;51.038;6.992;2023-06-10T12:42:01;112171.53;;;-144.33;28.30
19843;BME280;10082;51.038;6.992;2023-06-10T12:44:33;112171.53;;;-144.33;29.20